EJU75KF LIRF-EDDF
Flight info
| Callsign | EJU75KF |
|---|---|
| Flight time | 1h 31m |
| Altitude | 38000 |
| Route | SOVAN DCT AMTEL DCT GIKEB DCT EKPEB DCT BRENO DCT KONIN DCT ERNAS T161 ASPAT/N0410F300 T161 DEBHI SPESA5C |
| Aircraft | A320/M-SDE3FGHIRWY/LB1 |
Departure
| Time | 2026-04-14 14:24 |
|---|---|
| Airport | Rome–Fiumicino Leonardo da Vinci International Airport (LIRF) |
Arrival
| Time | 2026-04-14 15:56 |
|---|---|
| Airport | Frankfurt Main Airport (EDDF) |
| Time | Latitude | Longitude | Altitude | Speed | Heading |
|---|---|---|---|---|---|
| 2026-04-14 13:35 | 41.79725 | 12.24833 | 15 ft | 0 kts | 249° |
| 2026-04-14 14:13 | 41.79729 | 12.24845 | 15 ft | 2 kts | 251° |
| 2026-04-14 14:13 | 41.79734 | 12.24866 | 15 ft | 2 kts | 255° |
| 2026-04-14 14:14 | 41.79738 | 12.24888 | 17 ft | 2 kts | 260° |
| 2026-04-14 14:14 | 41.79740 | 12.24909 | 18 ft | 2 kts | 271° |
| 2026-04-14 14:14 | 41.79739 | 12.24931 | 18 ft | 2 kts | 300° |
| 2026-04-14 14:14 | 41.79727 | 12.24947 | 17 ft | 2 kts | 340° |
| 2026-04-14 14:15 | 41.79712 | 12.24954 | 20 ft | 2 kts | 340° |
| 2026-04-14 14:15 | 41.79703 | 12.24959 | 18 ft | 0 kts | 340° |
| 2026-04-14 14:15 | 41.79702 | 12.24959 | 18 ft | 0 kts | 340° |
| 2026-04-14 14:18 | 41.79714 | 12.24953 | 20 ft | 4 kts | 340° |
| 2026-04-14 14:18 | 41.79739 | 12.24941 | 19 ft | 5 kts | 339° |
| 2026-04-14 14:18 | 41.79809 | 12.24906 | 16 ft | 12 kts | 339° |
| 2026-04-14 14:18 | 41.79887 | 12.24866 | 17 ft | 12 kts | 340° |
| 2026-04-14 14:19 | 41.79963 | 12.24829 | 14 ft | 11 kts | 339° |
| 2026-04-14 14:19 | 41.80032 | 12.24794 | 14 ft | 10 kts | 339° |
| 2026-04-14 14:19 | 41.80099 | 12.24772 | 14 ft | 10 kts | 357° |
| 2026-04-14 14:19 | 41.80166 | 12.24778 | 12 ft | 9 kts | 19° |
| 2026-04-14 14:20 | 41.80199 | 12.24836 | 15 ft | 9 kts | 74° |
| 2026-04-14 14:20 | 41.80205 | 12.24934 | 17 ft | 10 kts | 87° |
| 2026-04-14 14:20 | 41.80206 | 12.25015 | 18 ft | 10 kts | 90° |
| 2026-04-14 14:20 | 41.80227 | 12.25154 | 17 ft | 20 kts | 71° |
| 2026-04-14 14:21 | 41.80277 | 12.25331 | 19 ft | 21 kts | 70° |
| 2026-04-14 14:21 | 41.80331 | 12.25529 | 15 ft | 24 kts | 70° |
| 2026-04-14 14:21 | 41.80390 | 12.25742 | 14 ft | 25 kts | 69° |
| 2026-04-14 14:21 | 41.80441 | 12.25924 | 13 ft | 18 kts | 71° |
| 2026-04-14 14:22 | 41.80459 | 12.25993 | 13 ft | 2 kts | 71° |
| 2026-04-14 14:22 | 41.80488 | 12.26094 | 13 ft | 15 kts | 69° |
| 2026-04-14 14:22 | 41.80558 | 12.26151 | 13 ft | 11 kts | 349° |
| 2026-04-14 14:22 | 41.80620 | 12.26121 | 16 ft | 8 kts | 340° |
| 2026-04-14 14:23 | 41.80695 | 12.26085 | 17 ft | 14 kts | 339° |
| 2026-04-14 14:23 | 41.80698 | 12.25983 | 17 ft | 15 kts | 246° |
| 2026-04-14 14:23 | 41.80595 | 12.25621 | 11 ft | 77 kts | 249° |
| 2026-04-14 14:23 | 41.80333 | 12.24674 | 14 ft | 137 kts | 249° |
| 2026-04-14 14:24 | 41.79957 | 12.23309 | 296 ft | 160 kts | 246° |
| 2026-04-14 14:24 | 41.79583 | 12.21903 | 945 ft | 158 kts | 246° |
| 2026-04-14 14:24 | 41.79222 | 12.20496 | 1477 ft | 173 kts | 251° |
| 2026-04-14 14:24 | 41.79238 | 12.18771 | 1785 ft | 204 kts | 290° |
| 2026-04-14 14:25 | 41.80139 | 12.17199 | 2389 ft | 219 kts | 310° |
| 2026-04-14 14:25 | 41.81145 | 12.15651 | 3119 ft | 220 kts | 307° |
| 2026-04-14 14:25 | 41.82116 | 12.14063 | 3815 ft | 221 kts | 306° |
| 2026-04-14 14:25 | 41.83085 | 12.12442 | 4522 ft | 223 kts | 307° |
| 2026-04-14 14:26 | 41.84151 | 12.10925 | 5188 ft | 226 kts | 322° |
| 2026-04-14 14:26 | 41.85545 | 12.09898 | 5663 ft | 241 kts | 342° |
| 2026-04-14 14:26 | 41.87249 | 12.09255 | 6020 ft | 265 kts | 345° |
| 2026-04-14 14:26 | 41.89099 | 12.08579 | 6467 ft | 285 kts | 345° |
| 2026-04-14 14:27 | 41.91036 | 12.07867 | 7206 ft | 291 kts | 345° |
| 2026-04-14 14:27 | 41.93002 | 12.07138 | 8023 ft | 295 kts | 345° |
| 2026-04-14 14:27 | 41.94992 | 12.06398 | 8868 ft | 298 kts | 346° |
| 2026-04-14 14:27 | 41.97061 | 12.05973 | 9375 ft | 308 kts | 357° |
| 2026-04-14 14:28 | 41.99217 | 12.05797 | 8980 ft | 307 kts | 357° |
| 2026-04-14 14:28 | 42.01326 | 12.05623 | 9016 ft | 303 kts | 357° |
| 2026-04-14 14:28 | 42.03417 | 12.05447 | 8959 ft | 300 kts | 356° |
| 2026-04-14 14:28 | 42.05506 | 12.05255 | 9165 ft | 299 kts | 356° |
| 2026-04-14 14:29 | 42.07604 | 12.05035 | 9874 ft | 305 kts | 356° |
| 2026-04-14 14:29 | 42.09749 | 12.04800 | 10462 ft | 318 kts | 355° |
| 2026-04-14 14:29 | 42.12031 | 12.04555 | 10736 ft | 339 kts | 356° |
| 2026-04-14 14:29 | 42.14427 | 12.04308 | 11272 ft | 349 kts | 356° |
| 2026-04-14 14:30 | 42.16879 | 12.04064 | 11939 ft | 355 kts | 356° |
| 2026-04-14 14:30 | 42.19338 | 12.03699 | 12666 ft | 357 kts | 351° |
| 2026-04-14 14:30 | 42.21801 | 12.03136 | 13415 ft | 361 kts | 351° |
| 2026-04-14 14:30 | 42.24290 | 12.02574 | 14092 ft | 364 kts | 351° |
| 2026-04-14 14:31 | 42.26774 | 12.02015 | 14705 ft | 368 kts | 351° |
| 2026-04-14 14:31 | 42.29315 | 12.01444 | 15357 ft | 371 kts | 351° |
| 2026-04-14 14:31 | 42.31879 | 12.00866 | 15984 ft | 374 kts | 351° |
| 2026-04-14 14:31 | 42.34463 | 12.00281 | 16588 ft | 378 kts | 351° |
| 2026-04-14 14:32 | 42.37072 | 11.99689 | 17227 ft | 381 kts | 351° |
| 2026-04-14 14:32 | 42.39702 | 11.99094 | 17838 ft | 385 kts | 351° |
| 2026-04-14 14:32 | 42.42355 | 11.98494 | 18413 ft | 388 kts | 351° |
| 2026-04-14 14:32 | 42.45031 | 11.97891 | 18931 ft | 392 kts | 351° |
| 2026-04-14 14:33 | 42.47737 | 11.97284 | 19478 ft | 395 kts | 351° |
| 2026-04-14 14:33 | 42.50454 | 11.96673 | 20014 ft | 398 kts | 351° |
| 2026-04-14 14:33 | 42.53200 | 11.96057 | 20541 ft | 401 kts | 351° |
| 2026-04-14 14:33 | 42.55970 | 11.95437 | 21057 ft | 405 kts | 351° |
| 2026-04-14 14:34 | 42.61393 | 11.93179 | 22067 ft | 413 kts | 339° |
| 2026-04-14 14:34 | 42.64082 | 11.91767 | 22594 ft | 416 kts | 339° |
| 2026-04-14 14:34 | 42.66751 | 11.90363 | 23101 ft | 419 kts | 339° |
| 2026-04-14 14:35 | 42.69482 | 11.88926 | 23572 ft | 422 kts | 339° |
| 2026-04-14 14:35 | 42.72234 | 11.87475 | 23980 ft | 425 kts | 339° |
| 2026-04-14 14:35 | 42.75001 | 11.86009 | 24393 ft | 428 kts | 339° |
| 2026-04-14 14:35 | 42.77780 | 11.84530 | 24797 ft | 430 kts | 339° |
| 2026-04-14 14:36 | 42.80574 | 11.83040 | 25200 ft | 433 kts | 339° |
| 2026-04-14 14:36 | 42.83388 | 11.81540 | 25603 ft | 435 kts | 339° |
| 2026-04-14 14:36 | 42.86212 | 11.80038 | 26006 ft | 436 kts | 339° |
| 2026-04-14 14:36 | 42.89046 | 11.78531 | 26380 ft | 439 kts | 339° |
| 2026-04-14 14:37 | 42.91901 | 11.77013 | 26748 ft | 441 kts | 339° |
| 2026-04-14 14:37 | 42.94766 | 11.75488 | 27112 ft | 443 kts | 339° |
| 2026-04-14 14:37 | 42.97648 | 11.73949 | 27464 ft | 446 kts | 339° |
| 2026-04-14 14:37 | 43.00548 | 11.72399 | 27813 ft | 448 kts | 339° |
| 2026-04-14 14:38 | 43.03460 | 11.70843 | 28145 ft | 451 kts | 338° |
| 2026-04-14 14:38 | 43.05393 | 11.69808 | 28404 ft | 451 kts | 338° |
| 2026-04-14 14:38 | 43.08323 | 11.68235 | 28775 ft | 453 kts | 338° |
| 2026-04-14 14:38 | 43.12220 | 11.66141 | 29285 ft | 454 kts | 338° |
| 2026-04-14 14:39 | 43.15165 | 11.64557 | 29633 ft | 455 kts | 338° |
| 2026-04-14 14:39 | 43.17158 | 11.63484 | 29855 ft | 456 kts | 338° |
| 2026-04-14 14:39 | 43.20158 | 11.62009 | 30128 ft | 458 kts | 344° |
| 2026-04-14 14:39 | 43.23281 | 11.61119 | 30372 ft | 460 kts | 353° |
| 2026-04-14 14:40 | 43.26476 | 11.60876 | 30600 ft | 461 kts | 1° |
| 2026-04-14 14:40 | 43.29653 | 11.60902 | 30843 ft | 463 kts | 0° |
| 2026-04-14 14:40 | 43.32878 | 11.60917 | 31078 ft | 465 kts | 0° |
| 2026-04-14 14:40 | 43.36120 | 11.60927 | 31308 ft | 466 kts | 0° |
| 2026-04-14 14:41 | 43.39362 | 11.60932 | 31625 ft | 465 kts | 0° |
| 2026-04-14 14:41 | 43.42608 | 11.60938 | 31950 ft | 465 kts | 0° |
| 2026-04-14 14:41 | 43.45846 | 11.60947 | 32257 ft | 465 kts | 0° |
| 2026-04-14 14:41 | 43.49092 | 11.60959 | 32534 ft | 465 kts | 0° |
| 2026-04-14 14:42 | 43.52326 | 11.60974 | 32826 ft | 465 kts | 0° |
| 2026-04-14 14:42 | 43.55560 | 11.60991 | 33127 ft | 465 kts | 1° |
| 2026-04-14 14:42 | 43.58801 | 11.61010 | 33429 ft | 465 kts | 1° |
| 2026-04-14 14:42 | 43.61996 | 11.61026 | 33736 ft | 465 kts | 1° |
| 2026-04-14 14:43 | 43.65271 | 11.61039 | 34037 ft | 465 kts | 0° |
| 2026-04-14 14:43 | 43.68505 | 11.61049 | 34281 ft | 465 kts | 0° |
| 2026-04-14 14:43 | 43.71704 | 11.61055 | 34537 ft | 465 kts | 0° |
| 2026-04-14 14:43 | 43.74934 | 11.61062 | 34781 ft | 464 kts | 0° |
| 2026-04-14 14:44 | 43.78161 | 11.61073 | 35031 ft | 464 kts | 0° |
| 2026-04-14 14:44 | 43.81385 | 11.61088 | 35279 ft | 463 kts | 0° |
| 2026-04-14 14:44 | 43.84609 | 11.61104 | 35514 ft | 463 kts | 360° |
| 2026-04-14 14:44 | 43.87832 | 11.61121 | 35755 ft | 462 kts | 360° |
| 2026-04-14 14:45 | 43.91048 | 11.61137 | 35983 ft | 462 kts | 360° |
| 2026-04-14 14:45 | 43.94255 | 11.61150 | 36208 ft | 461 kts | 360° |
| 2026-04-14 14:45 | 43.97460 | 11.61163 | 36434 ft | 460 kts | 359° |
| 2026-04-14 14:45 | 44.00663 | 11.61174 | 36643 ft | 460 kts | 359° |
| 2026-04-14 14:46 | 44.03862 | 11.61184 | 36861 ft | 459 kts | 359° |
| 2026-04-14 14:46 | 44.07048 | 11.61192 | 37100 ft | 457 kts | 359° |
| 2026-04-14 14:46 | 44.10230 | 11.61201 | 37313 ft | 457 kts | 359° |
| 2026-04-14 14:46 | 44.13412 | 11.61212 | 37507 ft | 456 kts | 359° |
| 2026-04-14 14:47 | 44.16582 | 11.61229 | 37686 ft | 456 kts | 359° |
| 2026-04-14 14:47 | 44.19747 | 11.61248 | 37878 ft | 455 kts | 359° |
| 2026-04-14 14:47 | 44.22916 | 11.61264 | 37993 ft | 455 kts | 359° |
| 2026-04-14 14:48 | 44.29241 | 11.61293 | 38011 ft | 454 kts | 359° |
| 2026-04-14 14:48 | 44.35564 | 11.61317 | 38008 ft | 454 kts | 359° |
| 2026-04-14 14:49 | 44.41879 | 11.61334 | 38008 ft | 454 kts | 359° |
| 2026-04-14 14:49 | 44.48199 | 11.61358 | 38011 ft | 453 kts | 359° |
| 2026-04-14 14:50 | 44.54508 | 11.61377 | 38013 ft | 453 kts | 359° |
| 2026-04-14 14:50 | 44.60778 | 11.61403 | 38018 ft | 453 kts | 359° |
| 2026-04-14 14:51 | 44.67090 | 11.61432 | 38018 ft | 453 kts | 359° |
| 2026-04-14 14:51 | 44.73401 | 11.61456 | 38023 ft | 453 kts | 359° |
| 2026-04-14 14:52 | 44.79711 | 11.61479 | 38027 ft | 453 kts | 359° |
| 2026-04-14 14:52 | 44.86023 | 11.61513 | 38035 ft | 453 kts | 359° |
| 2026-04-14 14:53 | 44.92326 | 11.61548 | 38031 ft | 453 kts | 359° |
| 2026-04-14 14:53 | 44.98620 | 11.61574 | 38036 ft | 452 kts | 359° |
| 2026-04-14 14:54 | 45.04916 | 11.61601 | 38027 ft | 453 kts | 359° |
| 2026-04-14 14:54 | 45.11215 | 11.61626 | 38032 ft | 453 kts | 359° |
| 2026-04-14 14:55 | 45.17524 | 11.61653 | 38036 ft | 453 kts | 359° |
| 2026-04-14 14:55 | 45.23833 | 11.61683 | 38041 ft | 452 kts | 359° |
| 2026-04-14 14:56 | 45.33270 | 11.61720 | 38045 ft | 452 kts | 359° |
| 2026-04-14 14:56 | 45.39549 | 11.61738 | 38041 ft | 451 kts | 359° |
| 2026-04-14 14:57 | 45.45822 | 11.61757 | 38038 ft | 451 kts | 359° |
| 2026-04-14 14:57 | 45.52091 | 11.61785 | 38036 ft | 450 kts | 359° |
| 2026-04-14 14:58 | 45.58366 | 11.61810 | 38037 ft | 450 kts | 359° |
| 2026-04-14 14:58 | 45.64635 | 11.61841 | 38046 ft | 450 kts | 359° |
| 2026-04-14 14:59 | 45.70859 | 11.61870 | 38046 ft | 450 kts | 359° |
| 2026-04-14 14:59 | 45.77127 | 11.61911 | 38039 ft | 449 kts | 359° |
| 2026-04-14 15:00 | 45.83372 | 11.61943 | 38031 ft | 449 kts | 359° |
| 2026-04-14 15:00 | 45.89616 | 11.61965 | 38024 ft | 449 kts | 358° |
| 2026-04-14 15:01 | 45.95878 | 11.61980 | 38027 ft | 450 kts | 359° |
| 2026-04-14 15:01 | 46.02131 | 11.62006 | 38027 ft | 449 kts | 359° |
| 2026-04-14 15:02 | 46.08382 | 11.62041 | 38031 ft | 449 kts | 359° |
| 2026-04-14 15:02 | 46.14631 | 11.62070 | 38035 ft | 449 kts | 359° |
| 2026-04-14 15:03 | 46.20822 | 11.61355 | 38031 ft | 445 kts | 347° |
| 2026-04-14 15:03 | 46.26895 | 11.59573 | 38028 ft | 446 kts | 348° |
| 2026-04-14 15:04 | 46.32977 | 11.57796 | 38019 ft | 446 kts | 348° |
| 2026-04-14 15:04 | 46.39056 | 11.56017 | 38027 ft | 446 kts | 347° |
| 2026-04-14 15:05 | 46.45135 | 11.54227 | 38036 ft | 445 kts | 347° |
| 2026-04-14 15:05 | 46.51209 | 11.52446 | 38038 ft | 445 kts | 347° |
| 2026-04-14 15:06 | 46.57282 | 11.50659 | 38032 ft | 445 kts | 347° |
| 2026-04-14 15:06 | 46.63344 | 11.48872 | 38032 ft | 445 kts | 347° |
| 2026-04-14 15:07 | 46.69377 | 11.47086 | 38042 ft | 445 kts | 347° |
| 2026-04-14 15:07 | 46.75416 | 11.45186 | 38054 ft | 444 kts | 346° |
| 2026-04-14 15:08 | 46.81434 | 11.43164 | 38081 ft | 443 kts | 346° |
| 2026-04-14 15:08 | 46.87445 | 11.41140 | 38080 ft | 443 kts | 346° |
| 2026-04-14 15:09 | 46.93452 | 11.39156 | 38094 ft | 442 kts | 346° |
| 2026-04-14 15:09 | 46.99512 | 11.37652 | 38105 ft | 444 kts | 357° |
| 2026-04-14 15:10 | 47.05702 | 11.37606 | 38101 ft | 444 kts | 358° |
| 2026-04-14 15:10 | 47.11843 | 11.37543 | 38151 ft | 443 kts | 358° |
| 2026-04-14 15:11 | 47.18020 | 11.37479 | 38160 ft | 444 kts | 358° |
| 2026-04-14 15:11 | 47.24190 | 11.37417 | 38167 ft | 444 kts | 358° |
| 2026-04-14 15:12 | 47.30372 | 11.37355 | 38167 ft | 444 kts | 358° |
| 2026-04-14 15:12 | 47.36551 | 11.37292 | 38165 ft | 444 kts | 358° |
| 2026-04-14 15:13 | 47.42732 | 11.37226 | 38162 ft | 444 kts | 358° |
| 2026-04-14 15:13 | 47.48905 | 11.37161 | 38163 ft | 443 kts | 358° |
| 2026-04-14 15:14 | 47.55079 | 11.37104 | 38163 ft | 443 kts | 358° |
| 2026-04-14 15:14 | 47.61218 | 11.37047 | 38173 ft | 443 kts | 359° |
| 2026-04-14 15:15 | 47.67389 | 11.36990 | 38180 ft | 443 kts | 358° |
| 2026-04-14 15:15 | 47.73560 | 11.36927 | 38174 ft | 443 kts | 358° |
| 2026-04-14 15:16 | 47.79732 | 11.36859 | 38172 ft | 443 kts | 358° |
| 2026-04-14 15:16 | 47.85905 | 11.36737 | 38164 ft | 443 kts | 354° |
| 2026-04-14 15:17 | 47.92035 | 11.35846 | 38161 ft | 443 kts | 353° |
| 2026-04-14 15:17 | 47.98173 | 11.34941 | 38158 ft | 443 kts | 353° |
| 2026-04-14 15:18 | 48.04309 | 11.34030 | 38158 ft | 443 kts | 353° |
| 2026-04-14 15:18 | 48.10452 | 11.33112 | 38159 ft | 443 kts | 353° |
| 2026-04-14 15:19 | 48.16554 | 11.32200 | 38161 ft | 444 kts | 353° |
| 2026-04-14 15:19 | 48.22696 | 11.31283 | 38161 ft | 444 kts | 353° |
| 2026-04-14 15:20 | 48.28841 | 11.30366 | 38164 ft | 444 kts | 353° |
| 2026-04-14 15:20 | 48.34990 | 11.29442 | 38166 ft | 444 kts | 353° |
| 2026-04-14 15:21 | 48.41130 | 11.28516 | 38170 ft | 444 kts | 353° |
| 2026-04-14 15:21 | 48.47284 | 11.27592 | 38170 ft | 443 kts | 353° |
| 2026-04-14 15:22 | 48.53426 | 11.26663 | 38193 ft | 443 kts | 353° |
| 2026-04-14 15:22 | 48.58518 | 11.25859 | 39779 ft | 441 kts | 351° |
| 2026-04-14 15:23 | 48.61559 | 11.25341 | 39581 ft | 440 kts | 353° |
| 2026-04-14 15:23 | 48.64605 | 11.24874 | 39055 ft | 439 kts | 353° |
| 2026-04-14 15:23 | 48.67648 | 11.24442 | 38434 ft | 439 kts | 353° |
| 2026-04-14 15:23 | 48.70679 | 11.24018 | 38174 ft | 438 kts | 353° |
| 2026-04-14 15:24 | 48.76755 | 11.23134 | 38195 ft | 440 kts | 353° |
| 2026-04-14 15:24 | 48.82739 | 11.21466 | 38192 ft | 437 kts | 338° |
| 2026-04-14 15:25 | 48.87986 | 11.16965 | 38192 ft | 434 kts | 319° |
| 2026-04-14 15:25 | 48.92451 | 11.10816 | 38198 ft | 433 kts | 316° |
| 2026-04-14 15:26 | 48.96899 | 11.04618 | 38197 ft | 433 kts | 316° |
| 2026-04-14 15:26 | 49.01340 | 10.98409 | 38208 ft | 433 kts | 316° |
| 2026-04-14 15:27 | 49.05770 | 10.92173 | 38230 ft | 433 kts | 316° |
| 2026-04-14 15:27 | 49.10190 | 10.85946 | 37909 ft | 432 kts | 316° |
| 2026-04-14 15:28 | 49.12396 | 10.82831 | 37335 ft | 431 kts | 316° |
| 2026-04-14 15:28 | 49.14595 | 10.79719 | 36623 ft | 432 kts | 316° |
| 2026-04-14 15:28 | 49.16801 | 10.76590 | 35909 ft | 433 kts | 316° |
| 2026-04-14 15:28 | 49.18968 | 10.73511 | 35443 ft | 428 kts | 316° |
| 2026-04-14 15:29 | 49.21118 | 10.70387 | 34892 ft | 426 kts | 314° |
| 2026-04-14 15:29 | 49.23202 | 10.67192 | 34317 ft | 423 kts | 313° |
| 2026-04-14 15:29 | 49.25239 | 10.63953 | 33712 ft | 421 kts | 313° |
| 2026-04-14 15:29 | 49.27240 | 10.60722 | 33190 ft | 416 kts | 312° |
| 2026-04-14 15:30 | 49.29226 | 10.57512 | 32650 ft | 413 kts | 312° |
| 2026-04-14 15:30 | 49.31197 | 10.54344 | 32123 ft | 409 kts | 312° |
| 2026-04-14 15:30 | 49.33162 | 10.51207 | 31607 ft | 406 kts | 313° |
| 2026-04-14 15:30 | 49.35121 | 10.48101 | 31098 ft | 404 kts | 312° |
| 2026-04-14 15:31 | 49.36907 | 10.44811 | 30601 ft | 399 kts | 303° |
| 2026-04-14 15:31 | 49.38506 | 10.41335 | 30074 ft | 397 kts | 303° |
| 2026-04-14 15:31 | 49.40085 | 10.37882 | 29590 ft | 393 kts | 303° |
| 2026-04-14 15:31 | 49.41643 | 10.34462 | 29110 ft | 389 kts | 303° |
| 2026-04-14 15:32 | 49.43183 | 10.31073 | 28663 ft | 384 kts | 303° |
| 2026-04-14 15:32 | 49.44707 | 10.27722 | 28202 ft | 381 kts | 303° |
| 2026-04-14 15:32 | 49.46216 | 10.24406 | 27765 ft | 377 kts | 303° |
| 2026-04-14 15:32 | 49.47711 | 10.21112 | 27315 ft | 374 kts | 303° |
| 2026-04-14 15:33 | 49.49191 | 10.17846 | 26873 ft | 371 kts | 303° |
| 2026-04-14 15:33 | 49.50645 | 10.14638 | 26424 ft | 368 kts | 303° |
| 2026-04-14 15:33 | 49.52103 | 10.11415 | 25983 ft | 366 kts | 303° |
| 2026-04-14 15:33 | 49.53553 | 10.08207 | 25526 ft | 364 kts | 302° |
| 2026-04-14 15:34 | 49.54992 | 10.05017 | 25063 ft | 362 kts | 302° |
| 2026-04-14 15:34 | 49.56424 | 10.01840 | 24589 ft | 361 kts | 302° |
| 2026-04-14 15:34 | 49.57851 | 9.98666 | 24116 ft | 360 kts | 302° |
| 2026-04-14 15:34 | 49.59275 | 9.95501 | 23610 ft | 359 kts | 302° |
| 2026-04-14 15:35 | 49.60695 | 9.92343 | 23109 ft | 357 kts | 302° |
| 2026-04-14 15:35 | 49.62104 | 9.89208 | 22633 ft | 354 kts | 302° |
| 2026-04-14 15:35 | 49.63499 | 9.86091 | 22168 ft | 352 kts | 302° |
| 2026-04-14 15:35 | 49.64884 | 9.82990 | 21718 ft | 350 kts | 302° |
| 2026-04-14 15:36 | 49.66262 | 9.79906 | 21269 ft | 348 kts | 302° |
| 2026-04-14 15:36 | 49.67633 | 9.76839 | 20822 ft | 346 kts | 303° |
| 2026-04-14 15:36 | 49.68998 | 9.73788 | 20381 ft | 345 kts | 303° |
| 2026-04-14 15:36 | 49.70356 | 9.70748 | 19961 ft | 343 kts | 303° |
| 2026-04-14 15:37 | 49.71695 | 9.67745 | 19733 ft | 335 kts | 303° |
| 2026-04-14 15:37 | 49.73008 | 9.64785 | 19384 ft | 331 kts | 303° |
| 2026-04-14 15:37 | 49.74308 | 9.61855 | 19014 ft | 329 kts | 303° |
| 2026-04-14 15:37 | 49.75584 | 9.58975 | 18643 ft | 328 kts | 303° |
| 2026-04-14 15:38 | 49.76868 | 9.56076 | 18267 ft | 326 kts | 303° |
| 2026-04-14 15:38 | 49.78146 | 9.53193 | 17870 ft | 324 kts | 303° |
| 2026-04-14 15:38 | 49.79412 | 9.50337 | 17510 ft | 320 kts | 303° |
| 2026-04-14 15:38 | 49.80666 | 9.47494 | 17148 ft | 318 kts | 303° |
| 2026-04-14 15:39 | 49.81905 | 9.44676 | 16800 ft | 315 kts | 303° |
| 2026-04-14 15:39 | 49.83134 | 9.41879 | 16443 ft | 313 kts | 303° |
| 2026-04-14 15:39 | 49.84355 | 9.39104 | 16078 ft | 311 kts | 303° |
| 2026-04-14 15:39 | 49.85565 | 9.36336 | 15734 ft | 309 kts | 301° |
| 2026-04-14 15:40 | 49.86508 | 9.33364 | 15383 ft | 306 kts | 288° |
| 2026-04-14 15:40 | 49.87124 | 9.30214 | 15029 ft | 304 kts | 285° |
| 2026-04-14 15:40 | 49.87722 | 9.27087 | 14519 ft | 301 kts | 285° |
| 2026-04-14 15:40 | 49.88317 | 9.23981 | 13947 ft | 300 kts | 285° |
| 2026-04-14 15:41 | 49.88906 | 9.20893 | 13330 ft | 297 kts | 285° |
| 2026-04-14 15:41 | 49.89488 | 9.17841 | 12726 ft | 294 kts | 285° |
| 2026-04-14 15:41 | 49.90065 | 9.14794 | 12158 ft | 295 kts | 285° |
| 2026-04-14 15:41 | 49.90640 | 9.11753 | 11804 ft | 293 kts | 285° |
| 2026-04-14 15:42 | 49.91213 | 9.08733 | 11512 ft | 291 kts | 285° |
| 2026-04-14 15:42 | 49.91778 | 9.05751 | 11236 ft | 291 kts | 285° |
| 2026-04-14 15:42 | 49.92351 | 9.02750 | 10865 ft | 290 kts | 285° |
| 2026-04-14 15:42 | 49.92931 | 8.99725 | 10517 ft | 287 kts | 285° |
| 2026-04-14 15:43 | 49.93495 | 8.96784 | 10153 ft | 287 kts | 285° |
| 2026-04-14 15:43 | 49.94057 | 8.93838 | 9821 ft | 283 kts | 285° |
| 2026-04-14 15:43 | 49.94611 | 8.90929 | 9406 ft | 281 kts | 285° |
| 2026-04-14 15:43 | 49.95170 | 8.87976 | 8803 ft | 287 kts | 286° |
| 2026-04-14 15:44 | 49.95732 | 8.84996 | 8471 ft | 287 kts | 287° |
| 2026-04-14 15:44 | 49.96295 | 8.82016 | 8252 ft | 287 kts | 288° |
| 2026-04-14 15:44 | 49.96862 | 8.79036 | 8185 ft | 288 kts | 287° |
| 2026-04-14 15:44 | 49.97430 | 8.76044 | 8192 ft | 289 kts | 287° |
| 2026-04-14 15:45 | 49.97832 | 8.72990 | 8192 ft | 290 kts | 275° |
| 2026-04-14 15:45 | 49.97707 | 8.69865 | 8192 ft | 292 kts | 259° |
| 2026-04-14 15:45 | 49.97091 | 8.66865 | 8195 ft | 292 kts | 250° |
| 2026-04-14 15:45 | 49.96377 | 8.63912 | 8192 ft | 292 kts | 251° |
| 2026-04-14 15:46 | 49.95663 | 8.60945 | 8193 ft | 292 kts | 251° |
| 2026-04-14 15:46 | 49.94960 | 8.58029 | 8195 ft | 292 kts | 251° |
| 2026-04-14 15:46 | 49.94238 | 8.55034 | 8193 ft | 292 kts | 251° |
| 2026-04-14 15:46 | 49.93535 | 8.52116 | 8193 ft | 292 kts | 250° |
| 2026-04-14 15:47 | 49.92823 | 8.49165 | 8188 ft | 292 kts | 250° |
| 2026-04-14 15:47 | 49.92105 | 8.46190 | 7806 ft | 290 kts | 250° |
| 2026-04-14 15:47 | 49.91406 | 8.43291 | 7346 ft | 290 kts | 251° |
| 2026-04-14 15:47 | 49.90700 | 8.40358 | 6908 ft | 290 kts | 251° |
| 2026-04-14 15:48 | 49.89992 | 8.37436 | 6458 ft | 289 kts | 251° |
| 2026-04-14 15:48 | 49.89284 | 8.34521 | 6010 ft | 288 kts | 251° |
| 2026-04-14 15:48 | 49.88574 | 8.31617 | 5552 ft | 287 kts | 251° |
| 2026-04-14 15:48 | 49.87865 | 8.28736 | 5143 ft | 285 kts | 251° |
| 2026-04-14 15:49 | 49.87219 | 8.25856 | 4856 ft | 282 kts | 258° |
| 2026-04-14 15:49 | 49.87172 | 8.22913 | 4560 ft | 268 kts | 286° |
| 2026-04-14 15:49 | 49.87989 | 8.20429 | 4303 ft | 254 kts | 315° |
| 2026-04-14 15:49 | 49.89408 | 8.18964 | 4082 ft | 241 kts | 340° |
| 2026-04-14 15:50 | 49.90984 | 8.18574 | 4009 ft | 223 kts | 10° |
| 2026-04-14 15:50 | 49.92339 | 8.19522 | 4010 ft | 214 kts | 38° |
| 2026-04-14 15:50 | 49.93452 | 8.21059 | 4012 ft | 213 kts | 43° |
| 2026-04-14 15:50 | 49.94509 | 8.22668 | 4011 ft | 212 kts | 44° |
| 2026-04-14 15:51 | 49.95548 | 8.24298 | 4010 ft | 212 kts | 49° |
| 2026-04-14 15:51 | 49.96239 | 8.26300 | 3949 ft | 209 kts | 68° |
| 2026-04-14 15:51 | 49.96727 | 8.28374 | 3723 ft | 206 kts | 68° |
| 2026-04-14 15:51 | 49.97219 | 8.30447 | 3464 ft | 204 kts | 68° |
| 2026-04-14 15:52 | 49.97718 | 8.32515 | 3186 ft | 205 kts | 68° |
| 2026-04-14 15:52 | 49.98216 | 8.34577 | 2901 ft | 200 kts | 68° |
| 2026-04-14 15:52 | 49.98698 | 8.36571 | 2625 ft | 194 kts | 67° |
| 2026-04-14 15:52 | 49.99163 | 8.38498 | 2420 ft | 186 kts | 68° |
| 2026-04-14 15:53 | 49.99605 | 8.40332 | 2136 ft | 176 kts | 68° |
| 2026-04-14 15:53 | 50.00024 | 8.42070 | 1882 ft | 166 kts | 68° |
| 2026-04-14 15:53 | 50.00409 | 8.43668 | 1699 ft | 149 kts | 67° |
| 2026-04-14 15:53 | 50.00754 | 8.45099 | 1484 ft | 139 kts | 68° |
| 2026-04-14 15:54 | 50.01419 | 8.47881 | 1099 ft | 138 kts | 68° |
| 2026-04-14 15:54 | 50.01756 | 8.49275 | 929 ft | 138 kts | 65° |
| 2026-04-14 15:54 | 50.02096 | 8.50651 | 737 ft | 136 kts | 66° |
| 2026-04-14 15:55 | 50.02421 | 8.52030 | 589 ft | 136 kts | 67° |
| 2026-04-14 15:55 | 50.02748 | 8.53390 | 386 ft | 134 kts | 68° |
| 2026-04-14 15:55 | 50.03049 | 8.54647 | 334 ft | 103 kts | 69° |
| 2026-04-14 15:55 | 50.03242 | 8.55441 | 353 ft | 54 kts | 69° |
| 2026-04-14 15:56 | 50.03365 | 8.55764 | 352 ft | 23 kts | 38° |
| 2026-04-14 15:56 | 50.03475 | 8.55906 | 353 ft | 19 kts | 40° |
| 2026-04-14 15:56 | 50.03541 | 8.55992 | 362 ft | 10 kts | 39° |
| 2026-04-14 15:56 | 50.03545 | 8.55997 | 363 ft | 2 kts | 39° |
| 2026-04-14 15:57 | 50.03605 | 8.56073 | 359 ft | 17 kts | 39° |
| 2026-04-14 15:57 | 50.03674 | 8.56231 | 361 ft | 19 kts | 67° |
| 2026-04-14 15:57 | 50.03721 | 8.56434 | 356 ft | 22 kts | 70° |
| 2026-04-14 15:57 | 50.03780 | 8.56670 | 361 ft | 25 kts | 68° |
| 2026-04-14 15:58 | 50.03844 | 8.56934 | 355 ft | 27 kts | 70° |
| 2026-04-14 15:58 | 50.03909 | 8.57207 | 355 ft | 27 kts | 69° |
| 2026-04-14 15:58 | 50.03976 | 8.57482 | 359 ft | 28 kts | 68° |
| 2026-04-14 15:58 | 50.04046 | 8.57777 | 358 ft | 27 kts | 70° |
| 2026-04-14 15:59 | 50.04111 | 8.58050 | 359 ft | 23 kts | 68° |
| 2026-04-14 15:59 | 50.04165 | 8.58284 | 356 ft | 24 kts | 69° |
| 2026-04-14 15:59 | 50.04210 | 8.58474 | 360 ft | 15 kts | 71° |
| 2026-04-14 15:59 | 50.04245 | 8.58594 | 359 ft | 13 kts | 45° |
| 2026-04-14 16:00 | 50.04347 | 8.58628 | 335 ft | 19 kts | 4° |
| 2026-04-14 16:00 | 50.04491 | 8.58651 | 328 ft | 21 kts | 6° |
| 2026-04-14 16:00 | 50.04598 | 8.58740 | 323 ft | 18 kts | 29° |
| 2026-04-14 16:00 | 50.04630 | 8.58755 | 325 ft | 0 kts | 5° |
| 2026-04-14 16:01 | 50.04670 | 8.58761 | 327 ft | 9 kts | 5° |
| 2026-04-14 16:02 | 50.04723 | 8.58768 | 329 ft | 6 kts | 1° |
| 2026-04-14 16:02 | 50.04786 | 8.58742 | 332 ft | 15 kts | 339° |
| 2026-04-14 16:02 | 50.04866 | 8.58696 | 336 ft | 10 kts | 340° |
| 2026-04-14 16:02 | 50.04918 | 8.58666 | 350 ft | 6 kts | 340° |
| 2026-04-14 16:03 | 50.04943 | 8.58597 | 345 ft | 10 kts | 281° |
| 2026-04-14 16:03 | 50.04986 | 8.58554 | 355 ft | 4 kts | 339° |
| 2026-04-14 16:03 | 50.04996 | 8.58548 | 355 ft | 2 kts | 340° |
| 2026-04-14 16:03 | 50.05009 | 8.58541 | 355 ft | 2 kts | 340° |
| 2026-04-14 16:04 | 50.05019 | 8.58535 | 359 ft | 4 kts | 340° |
| 2026-04-14 16:04 | 50.05023 | 8.58533 | 358 ft | 0 kts | 340° |